createdAt,value
2023-02-06T00:00:59.108Z,20.65
2023-02-06T00:03:26.861Z,20.85
2023-02-06T00:05:56.149Z,21.90
2023-02-06T00:08:25.847Z,20.15
2023-02-06T00:10:56.529Z,15.57
2023-02-06T00:13:24.287Z,17.38
2023-02-06T00:15:52.006Z,18.27
2023-02-06T00:18:19.687Z,17.30
2023-02-06T00:20:50.602Z,18.33
2023-02-06T00:23:19.759Z,19.85
2023-02-06T00:25:47.587Z,20.27
2023-02-06T00:28:16.805Z,19.55
2023-02-06T00:30:47.777Z,20.33
2023-02-06T00:33:23.815Z,20.38
2023-02-06T00:35:51.559Z,19.65
2023-02-06T00:38:19.286Z,19.02
2023-02-06T00:40:47.634Z,18.33
2023-02-06T00:43:16.704Z,19.98
2023-02-06T00:45:44.458Z,20.25
2023-02-06T00:48:16.385Z,18.98
2023-02-06T00:50:44.123Z,20.02
2023-02-06T00:53:12.112Z,19.15
2023-02-06T00:55:39.847Z,20.13
2023-02-06T00:58:07.701Z,19.98
2023-02-06T01:00:36.950Z,24.35
2023-02-06T01:03:04.855Z,22.70
2023-02-06T01:05:34.574Z,20.80
2023-02-06T01:08:04.432Z,22.48
2023-02-06T01:10:32.611Z,20.58
2023-02-06T01:13:00.332Z,19.70
2023-02-06T01:15:28.128Z,21.75
2023-02-06T01:17:57.190Z,21.55
2023-02-06T01:20:25.103Z,22.80
2023-02-06T01:22:52.851Z,19.02
2023-02-06T01:25:20.997Z,22.63
2023-02-06T01:27:48.716Z,20.75
2023-02-06T01:30:16.515Z,25.20
2023-02-06T01:32:44.460Z,22.23
2023-02-06T01:35:14.304Z,20.58
2023-02-06T01:37:42.647Z,19.63
2023-02-06T01:40:17.365Z,20.42
2023-02-06T01:42:45.486Z,21.15
2023-02-06T01:45:36.738Z,23.33
2023-02-06T01:48:09.488Z,21.30
2023-02-06T01:50:42.795Z,24.00
2023-02-06T01:53:11.026Z,22.98
2023-02-06T01:55:40.701Z,21.08
2023-02-06T01:58:09.938Z,21.02
2023-02-06T02:00:38.038Z,23.60
2023-02-06T02:03:06.156Z,22.65
2023-02-06T02:05:35.558Z,21.48
2023-02-06T02:08:09.291Z,23.13
2023-02-06T02:10:37.360Z,23.88
2023-02-06T02:13:05.100Z,23.15
2023-02-06T02:15:42.485Z,22.33
2023-02-06T02:18:25.061Z,22.63
2023-02-06T02:21:27.645Z,21.70
2023-02-06T02:24:05.913Z,24.58
2023-02-06T02:27:06.926Z,21.58
2023-02-06T02:30:03.104Z,22.33
2023-02-06T02:32:54.809Z,21.13
2023-02-06T02:35:35.153Z,23.83
2023-02-06T02:38:13.847Z,20.63
2023-02-06T02:40:51.195Z,22.85
2023-02-06T02:43:31.096Z,22.63
2023-02-06T02:46:03.652Z,21.73
2023-02-06T02:48:36.812Z,22.10
2023-02-06T02:51:07.162Z,25.17
2023-02-06T02:53:39.270Z,24.30
2023-02-06T02:56:15.901Z,20.27
2023-02-06T02:58:45.523Z,24.25
2023-02-06T03:01:18.053Z,21.75
2023-02-06T03:03:48.108Z,23.25
2023-02-06T03:06:36.172Z,22.45
2023-02-06T03:09:09.011Z,23.65
2023-02-06T03:11:45.975Z,22.88
2023-02-06T03:14:22.394Z,23.60
2023-02-06T03:16:55.581Z,21.52
2023-02-06T03:19:28.702Z,25.33
2023-02-06T03:21:57.963Z,21.60
2023-02-06T03:24:30.372Z,22.52
2023-02-06T03:27:01.083Z,23.48
2023-02-06T03:29:32.300Z,27.38
2023-02-06T03:32:03.124Z,24.88
2023-02-06T03:34:38.961Z,26.00
2023-02-06T03:37:08.349Z,26.33
2023-02-06T03:39:36.905Z,24.15
2023-02-06T03:42:09.829Z,26.33
2023-02-06T03:44:45.401Z,25.63
2023-02-06T03:47:15.186Z,26.17
2023-02-06T03:49:44.710Z,26.13
2023-02-06T03:52:17.428Z,23.77
2023-02-06T03:54:50.298Z,25.60
2023-02-06T03:57:20.148Z,26.95
2023-02-06T03:59:48.280Z,23.08
2023-02-06T04:02:18.812Z,28.42
2023-02-06T04:04:47.369Z,23.55
2023-02-06T04:07:21.203Z,28.60
2023-02-06T04:09:49.310Z,28.30
2023-02-06T04:12:18.350Z,24.92
2023-02-06T04:14:49.779Z,25.65
2023-02-06T04:17:36.147Z,24.17
2023-02-06T04:20:06.422Z,23.58
2023-02-06T04:22:35.785Z,25.35
2023-02-06T04:25:03.657Z,25.73
2023-02-06T04:27:31.408Z,26.80
2023-02-06T04:29:59.214Z,21.90
2023-02-06T04:32:31.210Z,26.02
2023-02-06T04:34:58.946Z,28.02
2023-02-06T04:37:26.664Z,25.48
2023-02-06T04:39:58.792Z,25.90
2023-02-06T04:42:29.710Z,26.83
2023-02-06T04:44:57.459Z,27.42
2023-02-06T04:47:29.040Z,25.75
2023-02-06T04:49:56.760Z,28.15
2023-02-06T04:52:24.494Z,27.55
2023-02-06T04:54:52.194Z,28.67
2023-02-06T04:57:21.442Z,31.45
2023-02-06T04:59:49.180Z,30.92
2023-02-06T05:02:16.953Z,27.42
2023-02-06T05:04:44.665Z,26.83
2023-02-06T05:07:12.371Z,32.92
2023-02-06T05:09:40.065Z,31.20
2023-02-06T05:12:08.030Z,28.15
2023-02-06T05:14:37.146Z,30.08
2023-02-06T05:17:06.804Z,31.00
2023-02-06T05:19:34.519Z,29.52
2023-02-06T05:22:02.756Z,29.23
2023-02-06T05:24:32.967Z,31.67
2023-02-06T05:27:00.660Z,31.65
2023-02-06T05:29:31.221Z,35.13
2023-02-06T05:32:00.316Z,29.27
2023-02-06T05:34:30.991Z,32.92
2023-02-06T05:36:58.733Z,30.75
2023-02-06T05:39:27.228Z,32.35
2023-02-06T05:41:56.595Z,31.55
2023-02-06T05:44:26.398Z,36.03
2023-02-06T05:46:57.279Z,33.25
2023-02-06T05:49:26.358Z,31.17
2023-02-06T05:51:54.072Z,29.85
2023-02-06T05:54:21.814Z,31.42
2023-02-06T05:56:49.593Z,33.05
2023-02-06T05:59:17.336Z,37.10
2023-02-06T06:01:45.051Z,35.03
2023-02-06T06:04:12.878Z,31.45
2023-02-06T06:06:41.991Z,31.30
2023-02-06T06:09:09.742Z,34.38
2023-02-06T06:11:37.555Z,38.65
2023-02-06T06:14:05.731Z,30.92
2023-02-06T06:16:33.567Z,36.30
2023-02-06T06:19:01.799Z,32.05
2023-02-06T06:21:29.502Z,34.50
2023-02-06T06:23:58.569Z,35.17
2023-02-06T06:26:26.322Z,35.33
2023-02-06T06:28:54.673Z,36.33
2023-02-06T06:31:22.529Z,34.90
2023-02-06T06:33:50.332Z,33.83
2023-02-06T06:36:18.139Z,35.72
2023-02-06T06:38:45.861Z,35.58
2023-02-06T06:41:15.065Z,36.40
2023-02-06T06:43:43.265Z,35.30
2023-02-06T06:46:11.089Z,36.80
2023-02-06T06:48:40.194Z,35.78
2023-02-06T06:51:08.366Z,33.58
2023-02-06T06:53:39.820Z,34.55
2023-02-06T06:56:09.450Z,32.50
2023-02-06T06:58:38.556Z,33.63
2023-02-06T07:01:06.693Z,33.58
2023-02-06T07:03:34.418Z,36.88
2023-02-06T07:06:02.192Z,38.05
2023-02-06T07:08:30.104Z,35.35
2023-02-06T07:10:58.325Z,45.05
2023-02-06T07:13:26.124Z,45.80
2023-02-06T07:15:55.200Z,62.38
2023-02-06T07:18:23.651Z,72.28
2023-02-06T07:20:51.487Z,60.05
2023-02-06T07:23:19.259Z,49.50
2023-02-06T07:25:46.963Z,44.25
2023-02-06T07:28:14.971Z,41.83
2023-02-06T07:30:43.252Z,37.92
2023-02-06T07:33:12.311Z,40.88
2023-02-06T07:35:45.668Z,50.08
2023-02-06T07:38:16.497Z,47.28
2023-02-06T07:40:45.410Z,40.65
2023-02-06T07:43:14.047Z,38.35
2023-02-06T07:45:42.051Z,49.53
2023-02-06T07:48:09.846Z,46.47
2023-02-06T07:50:39.215Z,52.97
2023-02-06T07:53:07.834Z,56.90
2023-02-06T07:55:37.890Z,51.58
2023-02-06T07:58:05.855Z,40.45
2023-02-06T08:00:33.551Z,43.72
2023-02-06T08:03:01.285Z,41.80
2023-02-06T08:05:29.077Z,39.58
2023-02-06T08:07:58.580Z,43.55
2023-02-06T08:10:26.693Z,38.42
2023-02-06T08:12:54.546Z,43.83
2023-02-06T08:15:22.348Z,43.30
2023-02-06T08:17:52.024Z,35.70
2023-02-06T08:20:20.204Z,38.42
2023-02-06T08:22:47.973Z,34.97
2023-02-06T08:25:17.214Z,33.55
2023-02-06T08:27:44.950Z,29.88
2023-02-06T08:30:14.412Z,27.65
2023-02-06T08:32:42.361Z,28.98
2023-02-06T08:35:10.052Z,24.40
2023-02-06T08:37:37.806Z,22.98
2023-02-06T08:40:09.323Z,24.55
2023-02-06T08:42:38.415Z,25.30
2023-02-06T08:45:07.380Z,27.88
2023-02-06T08:47:35.106Z,20.60
2023-02-06T08:50:03.670Z,16.50
2023-02-06T08:52:31.586Z,16.65
2023-02-06T08:54:59.302Z,21.15
2023-02-06T08:57:26.994Z,16.25
2023-02-06T08:59:56.085Z,21.98
2023-02-06T09:02:24.020Z,19.30
2023-02-06T09:04:52.036Z,16.45
2023-02-06T09:07:19.852Z,17.42
2023-02-06T09:09:47.565Z,23.88
2023-02-06T09:12:16.446Z,16.73
2023-02-06T09:14:44.425Z,14.20
2023-02-06T09:17:13.539Z,13.18
2023-02-06T09:19:41.513Z,19.15
2023-02-06T09:22:09.549Z,13.50
2023-02-06T09:24:38.843Z,16.58
2023-02-06T09:27:06.614Z,15.10
2023-02-06T09:29:34.582Z,14.77
2023-02-06T09:32:02.764Z,14.02
2023-02-06T09:34:31.855Z,13.88
2023-02-06T09:36:59.842Z,16.08
2023-02-06T09:39:27.675Z,14.70
2023-02-06T09:41:57.934Z,17.80
2023-02-06T09:44:31.631Z,13.15
2023-02-06T09:47:05.013Z,12.95
2023-02-06T09:49:41.672Z,13.15
2023-02-06T09:52:26.473Z,15.40
2023-02-06T09:55:02.024Z,13.95
2023-02-06T10:00:12.482Z,13.07
2023-02-06T10:03:01.969Z,13.43
2023-02-06T10:05:40.897Z,12.98
2023-02-06T10:08:17.956Z,15.55
2023-02-06T10:10:50.141Z,11.75
2023-02-06T10:13:25.386Z,14.38
2023-02-06T10:15:59.067Z,11.60
2023-02-06T10:18:35.133Z,14.10
2023-02-06T10:21:11.261Z,13.98
2023-02-06T10:23:45.585Z,11.60
2023-02-06T10:26:18.243Z,13.13
2023-02-06T10:28:49.596Z,12.30
2023-02-06T10:31:31.383Z,14.27
2023-02-06T10:34:17.034Z,12.75
2023-02-06T10:36:59.889Z,18.08
2023-02-06T10:39:52.178Z,12.30
2023-02-06T10:42:26.946Z,14.65
2023-02-06T10:45:18.434Z,13.45
2023-02-06T10:47:54.273Z,14.05
2023-02-06T10:50:29.541Z,11.93
2023-02-06T10:53:01.271Z,13.48
2023-02-06T10:55:33.829Z,17.02
2023-02-06T10:58:11.494Z,13.73
2023-02-06T11:00:41.111Z,12.68
2023-02-06T11:03:15.307Z,13.38
2023-02-06T11:05:43.378Z,20.02
2023-02-06T11:08:19.993Z,14.07
2023-02-06T11:10:47.924Z,12.00
2023-02-06T11:13:22.072Z,16.17
2023-02-06T11:15:57.400Z,15.45
2023-02-06T11:18:28.961Z,13.70
2023-02-06T11:20:57.051Z,14.00
2023-02-06T11:23:28.431Z,12.32
2023-02-06T11:26:05.414Z,12.25
2023-02-06T11:28:35.150Z,12.55
2023-02-06T11:31:04.710Z,15.57
2023-02-06T11:33:39.286Z,11.90
2023-02-06T11:36:18.173Z,12.47
2023-02-06T11:38:55.800Z,12.98
2023-02-06T11:41:23.508Z,13.27
2023-02-06T11:43:53.821Z,17.52
2023-02-06T11:46:25.496Z,17.88
2023-02-06T11:49:05.151Z,13.70
2023-02-06T11:51:52.431Z,11.70
2023-02-06T11:54:24.407Z,11.60
2023-02-06T11:57:09.423Z,13.27
2023-02-06T11:59:50.015Z,14.88
2023-02-06T12:02:28.228Z,12.32
2023-02-06T12:05:03.101Z,11.27
2023-02-06T12:07:35.330Z,10.43
2023-02-06T12:10:11.380Z,12.40
2023-02-06T12:12:43.754Z,13.52
2023-02-06T12:15:39.865Z,10.02
2023-02-06T12:18:06.690Z,12.63
2023-02-06T12:20:37.782Z,10.90
2023-02-06T12:23:13.141Z,11.57
2023-02-06T12:25:47.076Z,12.95
2023-02-06T12:28:20.840Z,13.75
2023-02-06T12:30:52.354Z,10.90
2023-02-06T12:33:23.360Z,16.88
2023-02-06T12:35:57.043Z,11.50
2023-02-06T12:38:43.723Z,9.27
2023-02-06T12:41:36.808Z,12.80
2023-02-06T12:44:13.127Z,13.20
2023-02-06T12:46:42.486Z,12.45
2023-02-06T12:49:16.997Z,11.35
2023-02-06T12:51:54.648Z,13.17
2023-02-06T12:54:26.027Z,13.57
2023-02-06T12:57:00.162Z,16.85
2023-02-06T12:59:59.639Z,14.68
2023-02-06T13:02:53.713Z,11.77
2023-02-06T13:05:26.109Z,12.95
2023-02-06T13:07:57.170Z,17.48
2023-02-06T13:10:27.384Z,13.00
2023-02-06T13:13:00.137Z,12.23
2023-02-06T13:15:30.076Z,12.15
2023-02-06T13:18:00.961Z,11.95
2023-02-06T13:20:29.041Z,15.88
2023-02-06T13:23:25.692Z,12.32
2023-02-06T13:25:56.418Z,19.83
2023-02-06T13:29:04.080Z,13.55
2023-02-06T13:31:35.674Z,15.85
2023-02-06T13:34:19.023Z,19.20
2023-02-06T13:36:53.443Z,13.30
2023-02-06T13:39:31.181Z,15.03
2023-02-06T13:42:04.799Z,19.48
2023-02-06T13:44:35.023Z,14.68
2023-02-06T13:47:30.108Z,17.33
2023-02-06T13:50:24.792Z,15.18
2023-02-06T13:53:07.939Z,18.35
2023-02-06T13:55:48.964Z,18.77
2023-02-06T13:58:44.997Z,14.25
2023-02-06T14:01:16.816Z,16.13
2023-02-06T14:03:49.457Z,19.55
2023-02-06T14:06:39.708Z,19.77
2023-02-06T14:09:33.837Z,14.13
2023-02-06T14:12:28.542Z,13.60
2023-02-06T14:15:08.141Z,17.27
2023-02-06T14:17:47.664Z,19.77
2023-02-06T14:20:30.720Z,16.05
2023-02-06T14:23:08.029Z,24.98
2023-02-06T14:25:57.464Z,16.05
2023-02-06T14:28:32.028Z,15.82
2023-02-06T14:31:12.652Z,17.48
2023-02-06T14:33:59.528Z,15.95
2023-02-06T14:36:42.748Z,14.82
2023-02-06T14:39:37.337Z,13.68
2023-02-06T14:42:13.381Z,14.93
2023-02-06T14:44:50.474Z,16.30
2023-02-06T14:47:21.525Z,13.60
2023-02-06T14:49:50.270Z,12.95
2023-02-06T14:52:22.979Z,13.88
2023-02-06T14:54:51.171Z,15.82
2023-02-06T14:57:23.248Z,15.88
2023-02-06T14:59:53.605Z,14.40
2023-02-06T15:02:27.738Z,14.57
2023-02-06T15:04:56.299Z,13.70
2023-02-06T15:07:30.251Z,14.18
2023-02-06T15:10:03.083Z,13.15
2023-02-06T15:12:35.378Z,16.73
2023-02-06T15:15:15.325Z,14.55
2023-02-06T15:17:45.063Z,19.92
2023-02-06T15:20:25.051Z,13.77
2023-02-06T15:22:58.175Z,15.15
2023-02-06T15:25:40.830Z,14.73
2023-02-06T15:28:14.087Z,15.02
2023-02-06T15:30:41.912Z,14.85
2023-02-06T15:33:11.914Z,14.25
2023-02-06T15:35:42.424Z,17.33
2023-02-06T15:38:15.718Z,12.35
2023-02-06T15:40:46.628Z,14.10
2023-02-06T15:43:17.295Z,12.65
2023-02-06T15:45:45.980Z,17.25
2023-02-06T15:48:18.792Z,13.23
2023-02-06T15:50:57.077Z,14.43
2023-02-06T15:53:33.768Z,14.05
2023-02-06T15:56:03.344Z,18.42
2023-02-06T15:58:31.628Z,15.73
2023-02-06T16:01:00.276Z,22.55
2023-02-06T16:03:30.807Z,12.25
2023-02-06T16:05:58.787Z,14.95
2023-02-06T16:08:33.121Z,18.83
2023-02-06T16:11:26.003Z,17.60
2023-02-06T16:13:54.334Z,17.67
2023-02-06T16:16:23.937Z,17.45
2023-02-06T16:18:53.711Z,14.85
2023-02-06T16:21:27.961Z,15.15
2023-02-06T16:24:16.333Z,14.52
2023-02-06T16:26:48.087Z,18.20
2023-02-06T16:29:24.078Z,14.85
2023-02-06T16:31:58.996Z,16.40
2023-02-06T16:34:40.615Z,20.88
2023-02-06T16:37:13.917Z,20.92
2023-02-06T16:39:43.287Z,17.83
2023-02-06T16:42:17.512Z,18.35
2023-02-06T16:44:49.442Z,16.52
2023-02-06T16:47:19.039Z,16.63
2023-02-06T16:49:49.609Z,14.38
2023-02-06T16:52:20.377Z,16.85
2023-02-06T16:54:48.862Z,16.30
2023-02-06T16:57:27.329Z,16.60
2023-02-06T16:59:55.078Z,17.27
2023-02-06T17:02:22.940Z,19.95
2023-02-06T17:04:51.067Z,15.68
2023-02-06T17:07:22.473Z,17.17
2023-02-06T17:09:51.391Z,17.00
2023-02-06T17:12:22.949Z,15.57
2023-02-06T17:14:50.826Z,17.83
2023-02-06T17:17:21.602Z,17.13
2023-02-06T17:19:50.765Z,13.98
2023-02-06T17:22:18.871Z,15.50
2023-02-06T17:24:46.796Z,14.80
2023-02-06T17:27:17.697Z,18.08
2023-02-06T17:29:47.756Z,20.45
2023-02-06T17:32:16.357Z,16.92
2023-02-06T17:34:46.594Z,18.52
2023-02-06T17:37:20.701Z,19.20
2023-02-06T17:39:50.267Z,19.00
2023-02-06T17:42:18.032Z,16.65
2023-02-06T17:44:47.117Z,17.05
2023-02-06T17:47:14.950Z,12.57
2023-02-06T17:49:42.733Z,13.18
2023-02-06T17:52:10.489Z,17.70
2023-02-06T17:54:38.264Z,14.70
2023-02-06T17:57:05.993Z,18.92
2023-02-06T17:59:33.814Z,17.20
2023-02-06T18:02:02.930Z,19.48
2023-02-06T18:04:30.690Z,16.67
2023-02-06T18:06:58.406Z,19.95
2023-02-06T18:09:26.157Z,21.15
2023-02-06T18:11:53.930Z,22.27
2023-02-06T18:14:21.924Z,20.73
2023-02-06T18:16:50.221Z,17.85
2023-02-06T18:19:25.258Z,19.40
2023-02-06T18:21:52.985Z,21.63
2023-02-06T18:24:20.743Z,27.90
2023-02-06T18:26:51.470Z,18.80
2023-02-06T18:29:19.220Z,18.17
2023-02-06T18:31:47.069Z,19.52
2023-02-06T18:34:20.480Z,23.02
2023-02-06T18:36:51.887Z,19.58
2023-02-06T18:39:19.701Z,18.52
2023-02-06T18:42:04.915Z,20.33
2023-02-06T18:44:33.184Z,20.90
2023-02-06T18:47:01.045Z,25.83
2023-02-06T18:49:28.807Z,23.10
2023-02-06T18:51:58.002Z,24.08
2023-02-06T18:54:25.845Z,20.13
2023-02-06T18:56:56.150Z,20.15
2023-02-06T18:59:23.931Z,21.50
2023-02-06T19:01:54.906Z,21.38
2023-02-06T19:04:23.034Z,19.77
2023-02-06T19:06:51.408Z,21.50
2023-02-06T19:09:20.974Z,20.80
2023-02-06T19:11:49.470Z,21.60
2023-02-06T19:14:22.480Z,19.80
2023-02-06T19:16:51.250Z,23.10
2023-02-06T19:19:19.157Z,21.15
2023-02-06T19:21:47.163Z,21.02
2023-02-06T19:24:18.423Z,19.10
2023-02-06T19:26:47.919Z,20.88
2023-02-06T19:29:34.366Z,22.40
2023-02-06T19:32:05.594Z,20.10
2023-02-06T19:34:36.006Z,22.40
2023-02-06T19:37:04.514Z,25.42
2023-02-06T19:39:34.130Z,20.35
2023-02-06T19:42:07.532Z,25.27
2023-02-06T19:44:35.340Z,24.73
2023-02-06T19:47:03.774Z,22.83
2023-02-06T19:49:31.878Z,23.98
2023-02-06T19:52:00.153Z,27.35
2023-02-06T19:54:28.297Z,22.40
2023-02-06T19:56:56.168Z,23.67
2023-02-06T19:59:27.926Z,23.17
2023-02-06T20:01:57.456Z,26.75
2023-02-06T20:04:27.566Z,25.17
2023-02-06T20:06:55.900Z,24.27
2023-02-06T20:09:24.263Z,24.60
2023-02-06T20:11:52.718Z,24.55
2023-02-06T20:14:22.932Z,22.95
2023-02-06T20:16:53.524Z,21.20
2023-02-06T20:19:25.198Z,22.98
2023-02-06T20:21:55.846Z,25.73
2023-02-06T20:24:26.558Z,24.48
2023-02-06T20:26:59.477Z,25.20
2023-02-06T20:29:31.399Z,26.80
2023-02-06T20:32:01.976Z,23.52
2023-02-06T20:34:29.985Z,25.25
2023-02-06T20:37:00.596Z,26.10
2023-02-06T20:39:31.068Z,30.38
2023-02-06T20:42:00.172Z,28.60
2023-02-06T20:44:28.761Z,28.17
2023-02-06T20:46:57.092Z,28.83
2023-02-06T20:49:28.886Z,30.25
2023-02-06T20:51:57.958Z,28.75
2023-02-06T20:54:27.157Z,27.35
2023-02-06T20:56:56.354Z,28.05
2023-02-06T20:59:24.404Z,30.85
2023-02-06T21:01:52.593Z,27.80
2023-02-06T21:04:21.894Z,28.17
2023-02-06T21:06:52.056Z,25.52
2023-02-06T21:09:20.688Z,28.50
2023-02-06T21:11:50.570Z,24.80
2023-02-06T21:14:21.125Z,31.92
2023-02-06T21:16:59.886Z,31.85
2023-02-06T21:19:29.262Z,31.95
2023-02-06T21:21:58.549Z,34.08
2023-02-06T21:24:26.389Z,31.67
2023-02-06T21:26:54.448Z,30.55
2023-02-06T21:29:24.849Z,29.73
2023-02-06T21:32:07.249Z,27.45
2023-02-06T21:34:43.921Z,31.55
2023-02-06T21:37:14.541Z,28.92
2023-02-06T21:39:43.330Z,30.60
2023-02-06T21:42:12.399Z,28.60
2023-02-06T21:44:40.421Z,33.65
2023-02-06T21:47:10.062Z,31.70
2023-02-06T21:49:38.514Z,32.03
2023-02-06T21:52:06.301Z,32.53
2023-02-06T21:54:35.630Z,35.13
2023-02-06T21:57:03.724Z,32.88
2023-02-06T21:59:33.901Z,31.83
2023-02-06T22:02:02.357Z,30.77
2023-02-06T22:04:30.275Z,34.03
2023-02-06T22:06:58.052Z,32.35
2023-02-06T22:09:25.781Z,31.70
2023-02-06T22:11:55.725Z,30.23
2023-02-06T22:14:23.495Z,32.05
2023-02-06T22:16:51.502Z,32.78
2023-02-06T22:19:19.367Z,35.17
2023-02-06T22:21:47.368Z,29.58
2023-02-06T22:24:15.337Z,29.98
2023-02-06T22:26:43.618Z,34.67
2023-02-06T22:29:15.475Z,32.22
2023-02-06T22:31:44.880Z,31.15
2023-02-06T22:34:16.702Z,32.20
2023-02-06T22:36:45.624Z,33.67
2023-02-06T22:39:14.407Z,34.22
2023-02-06T22:41:46.730Z,30.67
2023-02-06T22:44:17.231Z,30.75
2023-02-06T22:46:46.633Z,31.15
2023-02-06T22:49:16.558Z,35.35
2023-02-06T22:51:44.496Z,32.15
2023-02-06T22:54:13.531Z,31.60
2023-02-06T23:01:23.779Z,34.00
2023-02-06T23:03:52.857Z,37.67
2023-02-06T23:06:21.097Z,42.55
2023-02-06T23:08:48.934Z,38.85
2023-02-06T23:11:17.413Z,45.47
2023-02-06T23:13:45.155Z,39.85
2023-02-06T23:16:13.396Z,36.05
2023-02-06T23:18:42.573Z,34.97
2023-02-06T23:21:12.415Z,34.97
2023-02-06T23:23:41.347Z,36.63
2023-02-06T23:26:10.448Z,41.45
2023-02-06T23:28:38.715Z,38.38
2023-02-06T23:31:07.173Z,41.03
2023-02-06T23:33:35.817Z,45.05
2023-02-06T23:36:06.989Z,40.03
2023-02-06T23:38:34.907Z,40.05
2023-02-06T23:41:07.918Z,40.95
2023-02-06T23:43:35.743Z,40.47
2023-02-06T23:46:03.805Z,42.00
2023-02-06T23:48:31.606Z,39.78
2023-02-06T23:50:59.423Z,42.92
2023-02-06T23:53:28.932Z,40.45
2023-02-06T23:55:58.851Z,40.00
2023-02-06T23:58:26.790Z,43.92
